SBUL/UDI METAR and TAF weather

Enter ICAO airport designator
Station Type Date Time Source
SBUL METAR 2023/02/06 00:00 UTC NOAA

SBUL 060000Z 22006KT 9999 VCTS FEW047 FEW049CB 23/18 Q1018


Station Type Date Time Source
SBUL Decoded METAR 2023/02/06 00:00 UTC NOAA

Uberlandia , Brazil (SBUL) 18-53S 048-14W
Feb 05, 2023 - 07:00 PM EST / 2023.02.06 0000 UTC
Wind: from the SW (220 degrees) at 7 MPH (6 KT):0
Visibility: greater than 7 mile(s):0
Sky conditions: mostly clear
Weather: thunder in the vicinity; Cumulonimbus clouds observed
Temperature: 73 F (23 C)
Dew Point: 64 F (18 C)
Relative Humidity: 73%
Pressure (altimeter): 30.06 in. Hg (1018 hPa)
ob: SBUL 060000Z 22006KT 9999 VCTS FEW047 FEW049CB 23/18 Q1018
cycle: 0

Station Type Date Time Source
SBUL TAF 2023/02/06 00:33 UTC NOAA

TAF SBUL 052100Z 0600/0612 30007KT 9999 SCT035 FEW050TCU TX24/0600Z TN19/0608Z
BECMG 0600/0602 14005KT FEW030
BECMG 0602/0603 00000KT PROB30 0603/0606 VCSH SCT035 FEW050TCU PROB30
TEMPO 0606/0610 3000 BCFG BR BKN003
RMK PHH

Example: see airport list